sensor_id;sensor_type;location;lat;lon;timestamp;temperature;humidity
13742;DHT22;8461;52.356;10.704;2022-09-01T00:01:15;12.10;99.90
13742;DHT22;8461;52.356;10.704;2022-09-01T00:03:46;12.10;99.90
13742;DHT22;8461;52.356;10.704;2022-09-01T00:06:16;12.00;99.90
13742;DHT22;8461;52.356;10.704;2022-09-01T00:08:50;11.90;99.90
13742;DHT22;8461;52.356;10.704;2022-09-01T00:11:16;11.90;99.90
13742;DHT22;8461;52.356;10.704;2022-09-01T00:13:42;11.80;99.90
13742;DHT22;8461;52.356;10.704;2022-09-01T00:16:07;11.80;99.90
13742;DHT22;8461;52.356;10.704;2022-09-01T00:18:34;11.70;99.90
13742;DHT22;8461;52.356;10.704;2022-09-01T00:21:00;11.70;99.90
13742;DHT22;8461;52.356;10.704;2022-09-01T00:23:27;11.70;99.90
13742;DHT22;8461;52.356;10.704;2022-09-01T00:25:52;11.60;99.90
13742;DHT22;8461;52.356;10.704;2022-09-01T00:28:18;11.70;99.90
13742;DHT22;8461;52.356;10.704;2022-09-01T00:30:44;11.60;99.90
13742;DHT22;8461;52.356;10.704;2022-09-01T00:33:09;11.70;99.90
13742;DHT22;8461;52.356;10.704;2022-09-01T00:35:35;11.60;99.90
13742;DHT22;8461;52.356;10.704;2022-09-01T00:38:00;11.60;99.90
13742;DHT22;8461;52.356;10.704;2022-09-01T00:40:26;11.50;99.90
13742;DHT22;8461;52.356;10.704;2022-09-01T00:42:52;11.50;99.90
13742;DHT22;8461;52.356;10.704;2022-09-01T00:45:19;11.40;99.90
13742;DHT22;8461;52.356;10.704;2022-09-01T00:47:46;11.40;99.90
13742;DHT22;8461;52.356;10.704;2022-09-01T00:50:13;11.30;99.90
13742;DHT22;8461;52.356;10.704;2022-09-01T00:52:49;11.30;99.90
13742;DHT22;8461;52.356;10.704;2022-09-01T00:55:28;11.30;99.90
13742;DHT22;8461;52.356;10.704;2022-09-01T00:57:54;11.30;99.90
13742;DHT22;8461;52.356;10.704;2022-09-01T01:00:24;11.30;99.90
13742;DHT22;8461;52.356;10.704;2022-09-01T01:02:50;11.30;99.90
13742;DHT22;8461;52.356;10.704;2022-09-01T01:05:33;11.30;99.90
13742;DHT22;8461;52.356;10.704;2022-09-01T01:07:59;11.40;99.90
13742;DHT22;8461;52.356;10.704;2022-09-01T01:10:30;11.40;99.90
13742;DHT22;8461;52.356;10.704;2022-09-01T01:12:57;11.40;99.90
13742;DHT22;8461;52.356;10.704;2022-09-01T01:15:27;11.40;99.90
13742;DHT22;8461;52.356;10.704;2022-09-01T01:17:53;11.40;99.90
13742;DHT22;8461;52.356;10.704;2022-09-01T01:20:20;11.40;99.90
13742;DHT22;8461;52.356;10.704;2022-09-01T01:23:36;11.40;99.90
13742;DHT22;8461;52.356;10.704;2022-09-01T01:26:06;11.50;99.90
13742;DHT22;8461;52.356;10.704;2022-09-01T01:28:36;11.50;99.90
13742;DHT22;8461;52.356;10.704;2022-09-01T01:31:14;11.60;99.90
13742;DHT22;8461;52.356;10.704;2022-09-01T01:33:46;11.60;99.90
13742;DHT22;8461;52.356;10.704;2022-09-01T01:36:28;11.70;99.90
13742;DHT22;8461;52.356;10.704;2022-09-01T01:38:58;11.70;99.90
13742;DHT22;8461;52.356;10.704;2022-09-01T01:41:26;11.80;99.90
13742;DHT22;8461;52.356;10.704;2022-09-01T01:43:52;11.80;99.90
13742;DHT22;8461;52.356;10.704;2022-09-01T01:46:18;11.80;99.90
13742;DHT22;8461;52.356;10.704;2022-09-01T01:48:44;11.80;99.90
13742;DHT22;8461;52.356;10.704;2022-09-01T01:51:11;11.70;99.90
13742;DHT22;8461;52.356;10.704;2022-09-01T01:53:38;11.60;99.90
13742;DHT22;8461;52.356;10.704;2022-09-01T01:56:04;11.60;99.90
13742;DHT22;8461;52.356;10.704;2022-09-01T01:58:31;11.70;99.90
13742;DHT22;8461;52.356;10.704;2022-09-01T02:00:57;11.80;99.90
13742;DHT22;8461;52.356;10.704;2022-09-01T02:03:26;11.80;99.90
13742;DHT22;8461;52.356;10.704;2022-09-01T02:05:54;11.80;99.90
13742;DHT22;8461;52.356;10.704;2022-09-01T02:08:22;11.90;99.90
13742;DHT22;8461;52.356;10.704;2022-09-01T02:10:52;12.00;99.90
13742;DHT22;8461;52.356;10.704;2022-09-01T02:13:20;12.00;99.90
13742;DHT22;8461;52.356;10.704;2022-09-01T02:15:50;12.10;99.90
13742;DHT22;8461;52.356;10.704;2022-09-01T02:18:41;12.20;99.90
13742;DHT22;8461;52.356;10.704;2022-09-01T02:21:09;12.20;99.90
13742;DHT22;8461;52.356;10.704;2022-09-01T02:23:39;12.20;99.90
13742;DHT22;8461;52.356;10.704;2022-09-01T02:26:07;12.10;99.90
13742;DHT22;8461;52.356;10.704;2022-09-01T02:28:37;12.10;99.90
13742;DHT22;8461;52.356;10.704;2022-09-01T02:31:04;12.20;99.90
13742;DHT22;8461;52.356;10.704;2022-09-01T02:33:34;12.20;99.90
13742;DHT22;8461;52.356;10.704;2022-09-01T02:36:08;12.20;99.90
13742;DHT22;8461;52.356;10.704;2022-09-01T02:38:34;12.20;99.90
13742;DHT22;8461;52.356;10.704;2022-09-01T02:41:01;12.20;99.90
13742;DHT22;8461;52.356;10.704;2022-09-01T02:43:28;12.20;99.90
13742;DHT22;8461;52.356;10.704;2022-09-01T02:45:58;12.10;99.90
13742;DHT22;8461;52.356;10.704;2022-09-01T02:48:34;12.10;99.90
13742;DHT22;8461;52.356;10.704;2022-09-01T02:51:14;12.20;99.90
13742;DHT22;8461;52.356;10.704;2022-09-01T02:53:40;12.20;99.90
13742;DHT22;8461;52.356;10.704;2022-09-01T02:56:09;12.20;99.90
13742;DHT22;8461;52.356;10.704;2022-09-01T02:58:40;12.20;99.90
13742;DHT22;8461;52.356;10.704;2022-09-01T03:01:19;12.10;99.90
13742;DHT22;8461;52.356;10.704;2022-09-01T03:03:48;12.10;99.90
13742;DHT22;8461;52.356;10.704;2022-09-01T03:06:14;12.10;99.90
13742;DHT22;8461;52.356;10.704;2022-09-01T03:08:46;12.00;99.90
13742;DHT22;8461;52.356;10.704;2022-09-01T03:11:12;12.00;99.90
13742;DHT22;8461;52.356;10.704;2022-09-01T03:13:40;11.80;99.90
13742;DHT22;8461;52.356;10.704;2022-09-01T03:16:06;11.90;99.90
13742;DHT22;8461;52.356;10.704;2022-09-01T03:18:32;11.80;99.90
13742;DHT22;8461;52.356;10.704;2022-09-01T03:20:58;11.80;99.90
13742;DHT22;8461;52.356;10.704;2022-09-01T03:23:24;11.60;99.90
13742;DHT22;8461;52.356;10.704;2022-09-01T03:25:52;11.60;99.90
13742;DHT22;8461;52.356;10.704;2022-09-01T03:28:17;11.60;99.90
13742;DHT22;8461;52.356;10.704;2022-09-01T03:30:46;11.60;99.90
13742;DHT22;8461;52.356;10.704;2022-09-01T03:33:12;11.50;99.90
13742;DHT22;8461;52.356;10.704;2022-09-01T03:35:38;11.40;99.90
13742;DHT22;8461;52.356;10.704;2022-09-01T03:38:03;11.50;99.90
13742;DHT22;8461;52.356;10.704;2022-09-01T03:40:33;11.50;99.90
13742;DHT22;8461;52.356;10.704;2022-09-01T03:43:02;11.50;99.90
13742;DHT22;8461;52.356;10.704;2022-09-01T03:45:28;11.50;99.90
13742;DHT22;8461;52.356;10.704;2022-09-01T03:47:55;11.40;99.90
13742;DHT22;8461;52.356;10.704;2022-09-01T03:50:23;11.40;99.90
13742;DHT22;8461;52.356;10.704;2022-09-01T03:52:51;11.30;99.90
13742;DHT22;8461;52.356;10.704;2022-09-01T03:55:20;11.30;99.90
13742;DHT22;8461;52.356;10.704;2022-09-01T03:57:49;11.20;99.90
13742;DHT22;8461;52.356;10.704;2022-09-01T04:00:16;11.20;99.90
13742;DHT22;8461;52.356;10.704;2022-09-01T04:02:45;11.10;99.90
13742;DHT22;8461;52.356;10.704;2022-09-01T04:05:13;11.00;99.90
13742;DHT22;8461;52.356;10.704;2022-09-01T04:07:39;10.90;99.90
13742;DHT22;8461;52.356;10.704;2022-09-01T04:10:05;10.80;99.90
13742;DHT22;8461;52.356;10.704;2022-09-01T04:12:36;10.80;99.90
13742;DHT22;8461;52.356;10.704;2022-09-01T04:15:02;10.70;99.90
13742;DHT22;8461;52.356;10.704;2022-09-01T04:17:28;10.60;99.90
13742;DHT22;8461;52.356;10.704;2022-09-01T04:20:12;10.50;99.90
13742;DHT22;8461;52.356;10.704;2022-09-01T04:22:39;10.50;99.90
13742;DHT22;8461;52.356;10.704;2022-09-01T04:25:05;10.50;99.90
13742;DHT22;8461;52.356;10.704;2022-09-01T04:27:31;10.60;99.90
13742;DHT22;8461;52.356;10.704;2022-09-01T04:29:58;10.60;99.90
13742;DHT22;8461;52.356;10.704;2022-09-01T04:32:25;10.70;99.90
13742;DHT22;8461;52.356;10.704;2022-09-01T04:34:52;10.80;99.90
13742;DHT22;8461;52.356;10.704;2022-09-01T04:37:19;10.80;99.90
13742;DHT22;8461;52.356;10.704;2022-09-01T04:39:53;10.80;99.90
13742;DHT22;8461;52.356;10.704;2022-09-01T04:42:20;10.80;99.90
13742;DHT22;8461;52.356;10.704;2022-09-01T04:44:49;10.80;99.90
13742;DHT22;8461;52.356;10.704;2022-09-01T04:47:15;10.70;99.90
13742;DHT22;8461;52.356;10.704;2022-09-01T04:49:44;10.70;99.90
13742;DHT22;8461;52.356;10.704;2022-09-01T04:52:11;10.70;99.90
13742;DHT22;8461;52.356;10.704;2022-09-01T04:54:37;10.70;99.90
13742;DHT22;8461;52.356;10.704;2022-09-01T04:57:04;10.60;99.90
13742;DHT22;8461;52.356;10.704;2022-09-01T04:59:33;10.60;99.90
13742;DHT22;8461;52.356;10.704;2022-09-01T05:02:00;10.70;99.90
13742;DHT22;8461;52.356;10.704;2022-09-01T05:04:28;10.70;99.90
13742;DHT22;8461;52.356;10.704;2022-09-01T05:06:57;10.80;99.90
13742;DHT22;8461;52.356;10.704;2022-09-01T05:09:27;10.90;99.90
13742;DHT22;8461;52.356;10.704;2022-09-01T05:11:54;10.90;99.90
13742;DHT22;8461;52.356;10.704;2022-09-01T05:14:22;10.90;99.90
13742;DHT22;8461;52.356;10.704;2022-09-01T05:16:49;10.90;99.90
13742;DHT22;8461;52.356;10.704;2022-09-01T05:19:15;11.00;99.90
13742;DHT22;8461;52.356;10.704;2022-09-01T05:21:43;11.10;99.90
13742;DHT22;8461;52.356;10.704;2022-09-01T05:24:12;11.10;99.90
13742;DHT22;8461;52.356;10.704;2022-09-01T05:26:39;11.10;99.90
13742;DHT22;8461;52.356;10.704;2022-09-01T05:29:06;11.10;99.90
13742;DHT22;8461;52.356;10.704;2022-09-01T05:31:38;11.10;99.90
13742;DHT22;8461;52.356;10.704;2022-09-01T05:34:04;11.10;99.90
13742;DHT22;8461;52.356;10.704;2022-09-01T05:36:34;11.10;99.90
13742;DHT22;8461;52.356;10.704;2022-09-01T05:39:01;11.20;99.90
13742;DHT22;8461;52.356;10.704;2022-09-01T05:41:27;11.10;99.90
13742;DHT22;8461;52.356;10.704;2022-09-01T05:43:53;11.10;99.90
13742;DHT22;8461;52.356;10.704;2022-09-01T05:46:21;11.10;99.90
13742;DHT22;8461;52.356;10.704;2022-09-01T05:48:49;11.10;99.90
13742;DHT22;8461;52.356;10.704;2022-09-01T05:51:17;11.20;99.90
13742;DHT22;8461;52.356;10.704;2022-09-01T05:53:44;11.20;99.90
13742;DHT22;8461;52.356;10.704;2022-09-01T05:56:11;11.30;99.90
13742;DHT22;8461;52.356;10.704;2022-09-01T05:58:38;11.50;99.90
13742;DHT22;8461;52.356;10.704;2022-09-01T06:01:05;11.60;99.90
13742;DHT22;8461;52.356;10.704;2022-09-01T06:03:31;11.90;99.90
13742;DHT22;8461;52.356;10.704;2022-09-01T06:06:04;12.20;99.90
13742;DHT22;8461;52.356;10.704;2022-09-01T06:08:34;12.40;99.90
13742;DHT22;8461;52.356;10.704;2022-09-01T06:11:01;12.60;99.90
13742;DHT22;8461;52.356;10.704;2022-09-01T06:13:28;12.80;99.90
13742;DHT22;8461;52.356;10.704;2022-09-01T06:15:53;13.00;99.90
13742;DHT22;8461;52.356;10.704;2022-09-01T06:18:23;13.10;99.90
13742;DHT22;8461;52.356;10.704;2022-09-01T06:20:49;13.20;99.90
13742;DHT22;8461;52.356;10.704;2022-09-01T06:23:15;13.40;99.90
13742;DHT22;8461;52.356;10.704;2022-09-01T06:25:43;13.50;99.90
13742;DHT22;8461;52.356;10.704;2022-09-01T06:28:16;13.50;99.90
13742;DHT22;8461;52.356;10.704;2022-09-01T06:30:42;13.60;99.90
13742;DHT22;8461;52.356;10.704;2022-09-01T06:33:11;13.70;99.90
13742;DHT22;8461;52.356;10.704;2022-09-01T06:35:38;13.70;99.90
13742;DHT22;8461;52.356;10.704;2022-09-01T06:38:05;13.90;99.90
13742;DHT22;8461;52.356;10.704;2022-09-01T06:40:32;14.00;99.90
13742;DHT22;8461;52.356;10.704;2022-09-01T06:42:58;14.10;99.90
13742;DHT22;8461;52.356;10.704;2022-09-01T06:45:24;14.20;99.90
13742;DHT22;8461;52.356;10.704;2022-09-01T06:47:51;14.20;99.90
13742;DHT22;8461;52.356;10.704;2022-09-01T06:50:20;14.30;99.90
13742;DHT22;8461;52.356;10.704;2022-09-01T06:52:47;14.40;99.90
13742;DHT22;8461;52.356;10.704;2022-09-01T06:55:15;14.40;99.90
13742;DHT22;8461;52.356;10.704;2022-09-01T06:57:42;14.50;99.90
13742;DHT22;8461;52.356;10.704;2022-09-01T07:00:12;14.60;99.90
13742;DHT22;8461;52.356;10.704;2022-09-01T07:02:53;14.70;99.90
13742;DHT22;8461;52.356;10.704;2022-09-01T07:05:20;14.90;99.90
13742;DHT22;8461;52.356;10.704;2022-09-01T07:07:51;15.00;99.90
13742;DHT22;8461;52.356;10.704;2022-09-01T07:10:24;15.10;99.90
13742;DHT22;8461;52.356;10.704;2022-09-01T07:12:51;15.30;99.90
13742;DHT22;8461;52.356;10.704;2022-09-01T07:15:17;15.30;99.90
13742;DHT22;8461;52.356;10.704;2022-09-01T07:17:55;15.30;99.90
13742;DHT22;8461;52.356;10.704;2022-09-01T07:20:23;15.30;99.90
13742;DHT22;8461;52.356;10.704;2022-09-01T07:22:50;15.40;99.90
13742;DHT22;8461;52.356;10.704;2022-09-01T07:25:17;15.50;99.90
13742;DHT22;8461;52.356;10.704;2022-09-01T07:27:43;15.60;99.90
13742;DHT22;8461;52.356;10.704;2022-09-01T07:30:20;15.70;99.90
13742;DHT22;8461;52.356;10.704;2022-09-01T07:32:46;15.70;99.90
13742;DHT22;8461;52.356;10.704;2022-09-01T07:35:15;15.80;99.90
13742;DHT22;8461;52.356;10.704;2022-09-01T07:37:42;15.90;99.90
13742;DHT22;8461;52.356;10.704;2022-09-01T07:40:11;16.00;99.90
13742;DHT22;8461;52.356;10.704;2022-09-01T07:42:37;16.10;99.90
13742;DHT22;8461;52.356;10.704;2022-09-01T07:45:06;16.10;99.90
13742;DHT22;8461;52.356;10.704;2022-09-01T07:47:33;16.10;99.90
13742;DHT22;8461;52.356;10.704;2022-09-01T07:50:02;16.20;99.90
13742;DHT22;8461;52.356;10.704;2022-09-01T07:52:30;16.30;99.90
13742;DHT22;8461;52.356;10.704;2022-09-01T07:54:55;16.40;99.90
13742;DHT22;8461;52.356;10.704;2022-09-01T07:57:21;16.50;99.90
13742;DHT22;8461;52.356;10.704;2022-09-01T07:59:47;16.50;99.90
13742;DHT22;8461;52.356;10.704;2022-09-01T08:02:14;16.60;99.90
13742;DHT22;8461;52.356;10.704;2022-09-01T08:04:42;16.80;99.90
13742;DHT22;8461;52.356;10.704;2022-09-01T08:07:09;16.80;99.90
13742;DHT22;8461;52.356;10.704;2022-09-01T08:09:36;16.80;99.90
13742;DHT22;8461;52.356;10.704;2022-09-01T08:12:03;17.00;99.90
13742;DHT22;8461;52.356;10.704;2022-09-01T08:14:29;17.00;99.90
13742;DHT22;8461;52.356;10.704;2022-09-01T08:16:56;17.10;99.90
13742;DHT22;8461;52.356;10.704;2022-09-01T08:19:21;17.20;99.90
13742;DHT22;8461;52.356;10.704;2022-09-01T08:21:47;17.30;99.90
13742;DHT22;8461;52.356;10.704;2022-09-01T08:24:13;17.30;99.90
13742;DHT22;8461;52.356;10.704;2022-09-01T08:26:39;17.40;99.90
13742;DHT22;8461;52.356;10.704;2022-09-01T08:29:04;17.30;99.90
13742;DHT22;8461;52.356;10.704;2022-09-01T08:31:30;17.30;99.90
13742;DHT22;8461;52.356;10.704;2022-09-01T08:33:57;17.40;99.90
13742;DHT22;8461;52.356;10.704;2022-09-01T08:36:23;17.50;99.90
13742;DHT22;8461;52.356;10.704;2022-09-01T08:38:49;17.50;99.90
13742;DHT22;8461;52.356;10.704;2022-09-01T08:44:10;17.60;99.90
13742;DHT22;8461;52.356;10.704;2022-09-01T08:46:39;17.70;99.90
13742;DHT22;8461;52.356;10.704;2022-09-01T08:49:11;17.80;99.90
13742;DHT22;8461;52.356;10.704;2022-09-01T08:54:31;18.00;99.90
13742;DHT22;8461;52.356;10.704;2022-09-01T08:57:05;18.10;99.90
13742;DHT22;8461;52.356;10.704;2022-09-01T08:59:31;18.20;99.90
13742;DHT22;8461;52.356;10.704;2022-09-01T09:02:26;18.20;99.90
13742;DHT22;8461;52.356;10.704;2022-09-01T09:10:47;18.40;99.90
13742;DHT22;8461;52.356;10.704;2022-09-01T09:19:00;18.50;99.90
13742;DHT22;8461;52.356;10.704;2022-09-01T09:21:39;18.70;99.90
13742;DHT22;8461;52.356;10.704;2022-09-01T09:26:55;19.00;99.90
13742;DHT22;8461;52.356;10.704;2022-09-01T09:29:24;19.00;99.90
13742;DHT22;8461;52.356;10.704;2022-09-01T09:32:05;19.10;99.90
13742;DHT22;8461;52.356;10.704;2022-09-01T09:34:39;19.10;99.90
13742;DHT22;8461;52.356;10.704;2022-09-01T09:37:41;19.20;99.90
13742;DHT22;8461;52.356;10.704;2022-09-01T09:40:14;19.30;99.90
13742;DHT22;8461;52.356;10.704;2022-09-01T09:43:04;19.30;99.90
13742;DHT22;8461;52.356;10.704;2022-09-01T09:45:34;19.30;99.90
13742;DHT22;8461;52.356;10.704;2022-09-01T09:48:08;19.30;99.90
13742;DHT22;8461;52.356;10.704;2022-09-01T09:50:39;19.30;99.90
13742;DHT22;8461;52.356;10.704;2022-09-01T09:55:55;19.40;99.90
13742;DHT22;8461;52.356;10.704;2022-09-01T09:58:25;19.50;99.90
13742;DHT22;8461;52.356;10.704;2022-09-01T10:01:40;19.50;99.90
13742;DHT22;8461;52.356;10.704;2022-09-01T10:03:59;19.50;99.90
13742;DHT22;8461;52.356;10.704;2022-09-01T10:08:57;19.80;99.90
13742;DHT22;8461;52.356;10.704;2022-09-01T10:13:52;19.80;99.90
13742;DHT22;8461;52.356;10.704;2022-09-01T10:16:30;19.90;99.90
13742;DHT22;8461;52.356;10.704;2022-09-01T10:18:58;19.90;99.90
13742;DHT22;8461;52.356;10.704;2022-09-01T10:21:37;20.10;99.90
13742;DHT22;8461;52.356;10.704;2022-09-01T10:26:45;20.20;99.90
13742;DHT22;8461;52.356;10.704;2022-09-01T10:31:53;20.20;99.90
13742;DHT22;8461;52.356;10.704;2022-09-01T10:34:20;20.40;99.90
13742;DHT22;8461;52.356;10.704;2022-09-01T10:36:48;20.60;99.90
13742;DHT22;8461;52.356;10.704;2022-09-01T10:39:17;20.60;99.90
13742;DHT22;8461;52.356;10.704;2022-09-01T10:44:32;20.50;99.80
13742;DHT22;8461;52.356;10.704;2022-09-01T10:47:09;20.50;99.90
13742;DHT22;8461;52.356;10.704;2022-09-01T10:52:10;20.40;99.90
13742;DHT22;8461;52.356;10.704;2022-09-01T10:59:48;20.20;99.30
13742;DHT22;8461;52.356;10.704;2022-09-01T11:02:17;20.30;99.90
13742;DHT22;8461;52.356;10.704;2022-09-01T11:12:51;20.40;98.10
13742;DHT22;8461;52.356;10.704;2022-09-01T11:15:33;20.30;96.20
13742;DHT22;8461;52.356;10.704;2022-09-01T11:18:00;20.10;96.50
13742;DHT22;8461;52.356;10.704;2022-09-01T11:25:44;20.30;97.20
13742;DHT22;8461;52.356;10.704;2022-09-01T11:28:37;20.60;96.90
13742;DHT22;8461;52.356;10.704;2022-09-01T11:36:34;20.80;97.70
13742;DHT22;8461;52.356;10.704;2022-09-01T11:44:31;21.30;96.90
13742;DHT22;8461;52.356;10.704;2022-09-01T11:47:04;21.50;96.80
13742;DHT22;8461;52.356;10.704;2022-09-01T11:49:36;21.70;95.60
13742;DHT22;8461;52.356;10.704;2022-09-01T11:52:04;21.80;95.10
13742;DHT22;8461;52.356;10.704;2022-09-01T11:54:38;21.60;94.80
13742;DHT22;8461;52.356;10.704;2022-09-01T11:57:28;21.30;94.50
13742;DHT22;8461;52.356;10.704;2022-09-01T11:59:55;21.20;94.60
13742;DHT22;8461;52.356;10.704;2022-09-01T12:02:35;21.10;95.00
13742;DHT22;8461;52.356;10.704;2022-09-01T12:05:03;20.90;95.40
13742;DHT22;8461;52.356;10.704;2022-09-01T12:07:43;20.70;95.00
13742;DHT22;8461;52.356;10.704;2022-09-01T12:10:32;20.90;95.30
13742;DHT22;8461;52.356;10.704;2022-09-01T12:13:09;21.30;94.40
13742;DHT22;8461;52.356;10.704;2022-09-01T12:15:37;21.50;94.10
13742;DHT22;8461;52.356;10.704;2022-09-01T12:18:22;21.40;93.70
13742;DHT22;8461;52.356;10.704;2022-09-01T12:20:50;21.30;94.10
13742;DHT22;8461;52.356;10.704;2022-09-01T12:23:33;21.20;94.10
13742;DHT22;8461;52.356;10.704;2022-09-01T12:26:03;21.10;94.10
13742;DHT22;8461;52.356;10.704;2022-09-01T12:28:30;21.20;94.60
13742;DHT22;8461;52.356;10.704;2022-09-01T12:30:59;21.40;94.50
13742;DHT22;8461;52.356;10.704;2022-09-01T12:33:26;21.70;93.90
13742;DHT22;8461;52.356;10.704;2022-09-01T12:38:39;21.90;92.70
13742;DHT22;8461;52.356;10.704;2022-09-01T12:41:22;21.80;92.60
13742;DHT22;8461;52.356;10.704;2022-09-01T12:43:48;21.80;92.50
13742;DHT22;8461;52.356;10.704;2022-09-01T12:46:43;21.90;93.00
13742;DHT22;8461;52.356;10.704;2022-09-01T12:49:17;22.00;92.20
13742;DHT22;8461;52.356;10.704;2022-09-01T12:51:44;22.10;91.70
13742;DHT22;8461;52.356;10.704;2022-09-01T12:54:12;22.20;91.70
13742;DHT22;8461;52.356;10.704;2022-09-01T12:56:37;22.10;91.70
13742;DHT22;8461;52.356;10.704;2022-09-01T12:59:13;21.90;91.50
13742;DHT22;8461;52.356;10.704;2022-09-01T13:01:44;21.80;91.50
13742;DHT22;8461;52.356;10.704;2022-09-01T13:04:29;21.80;91.60
13742;DHT22;8461;52.356;10.704;2022-09-01T13:07:06;22.00;92.10
13742;DHT22;8461;52.356;10.704;2022-09-01T13:09:32;22.20;92.00
13742;DHT22;8461;52.356;10.704;2022-09-01T13:12:18;22.00;90.20
13742;DHT22;8461;52.356;10.704;2022-09-01T13:14:45;21.90;90.60
13742;DHT22;8461;52.356;10.704;2022-09-01T13:17:10;22.00;90.20
13742;DHT22;8461;52.356;10.704;2022-09-01T13:19:37;22.30;90.40
13742;DHT22;8461;52.356;10.704;2022-09-01T13:22:03;22.60;89.10
13742;DHT22;8461;52.356;10.704;2022-09-01T13:24:29;22.90;89.90
13742;DHT22;8461;52.356;10.704;2022-09-01T13:26:54;23.10;88.00
13742;DHT22;8461;52.356;10.704;2022-09-01T13:29:23;23.10;89.80
13742;DHT22;8461;52.356;10.704;2022-09-01T13:31:48;22.90;90.30
13742;DHT22;8461;52.356;10.704;2022-09-01T13:34:14;22.90;90.50
13742;DHT22;8461;52.356;10.704;2022-09-01T13:36:40;22.90;89.50
13742;DHT22;8461;52.356;10.704;2022-09-01T13:39:05;22.90;88.40
13742;DHT22;8461;52.356;10.704;2022-09-01T13:41:31;22.70;89.30
13742;DHT22;8461;52.356;10.704;2022-09-01T13:43:56;22.70;90.20
13742;DHT22;8461;52.356;10.704;2022-09-01T13:46:22;22.60;90.20
13742;DHT22;8461;52.356;10.704;2022-09-01T13:48:48;22.60;90.10
13742;DHT22;8461;52.356;10.704;2022-09-01T13:51:24;22.70;90.30
13742;DHT22;8461;52.356;10.704;2022-09-01T13:53:51;22.60;90.00
13742;DHT22;8461;52.356;10.704;2022-09-01T13:56:16;22.70;90.00
13742;DHT22;8461;52.356;10.704;2022-09-01T13:58:42;22.80;89.50
13742;DHT22;8461;52.356;10.704;2022-09-01T14:01:07;22.80;89.00
13742;DHT22;8461;52.356;10.704;2022-09-01T14:03:33;22.70;88.50
13742;DHT22;8461;52.356;10.704;2022-09-01T14:05:59;22.80;87.90
13742;DHT22;8461;52.356;10.704;2022-09-01T14:08:24;22.60;86.90
13742;DHT22;8461;52.356;10.704;2022-09-01T14:10:51;22.40;87.40
13742;DHT22;8461;52.356;10.704;2022-09-01T14:13:22;22.10;88.00
13742;DHT22;8461;52.356;10.704;2022-09-01T14:15:48;21.90;88.30
13742;DHT22;8461;52.356;10.704;2022-09-01T14:18:14;21.80;88.90
13742;DHT22;8461;52.356;10.704;2022-09-01T14:20:43;21.70;88.80
13742;DHT22;8461;52.356;10.704;2022-09-01T14:23:09;21.60;89.40
13742;DHT22;8461;52.356;10.704;2022-09-01T14:25:36;21.60;89.80
13742;DHT22;8461;52.356;10.704;2022-09-01T14:28:02;21.70;89.60
13742;DHT22;8461;52.356;10.704;2022-09-01T14:30:30;21.90;87.50
13742;DHT22;8461;52.356;10.704;2022-09-01T14:32:56;22.10;86.80
13742;DHT22;8461;52.356;10.704;2022-09-01T14:35:23;22.30;86.20
13742;DHT22;8461;52.356;10.704;2022-09-01T14:37:51;22.50;88.00
13742;DHT22;8461;52.356;10.704;2022-09-01T14:40:18;22.60;90.30
13742;DHT22;8461;52.356;10.704;2022-09-01T14:42:46;22.70;90.00
13742;DHT22;8461;52.356;10.704;2022-09-01T14:45:14;22.80;89.70
13742;DHT22;8461;52.356;10.704;2022-09-01T14:47:40;22.80;90.20
13742;DHT22;8461;52.356;10.704;2022-09-01T14:50:06;22.80;90.10
13742;DHT22;8461;52.356;10.704;2022-09-01T14:52:32;22.50;89.10
13742;DHT22;8461;52.356;10.704;2022-09-01T14:54:58;22.30;89.40
13742;DHT22;8461;52.356;10.704;2022-09-01T14:57:24;22.20;89.10
13742;DHT22;8461;52.356;10.704;2022-09-01T14:59:50;22.20;89.40
13742;DHT22;8461;52.356;10.704;2022-09-01T15:02:15;22.30;88.80
13742;DHT22;8461;52.356;10.704;2022-09-01T15:04:41;22.20;89.60
13742;DHT22;8461;52.356;10.704;2022-09-01T15:07:07;22.10;88.80
13742;DHT22;8461;52.356;10.704;2022-09-01T15:09:34;22.10;90.20
13742;DHT22;8461;52.356;10.704;2022-09-01T15:11:59;22.10;90.00
13742;DHT22;8461;52.356;10.704;2022-09-01T15:14:26;22.00;90.30
13742;DHT22;8461;52.356;10.704;2022-09-01T15:16:51;22.00;90.60
13742;DHT22;8461;52.356;10.704;2022-09-01T15:19:17;21.90;90.50
13742;DHT22;8461;52.356;10.704;2022-09-01T15:21:45;21.90;90.70
13742;DHT22;8461;52.356;10.704;2022-09-01T15:24:11;21.80;90.80
13742;DHT22;8461;52.356;10.704;2022-09-01T15:26:38;21.80;90.90
13742;DHT22;8461;52.356;10.704;2022-09-01T15:29:05;21.80;90.80
13742;DHT22;8461;52.356;10.704;2022-09-01T15:31:34;21.70;90.80
13742;DHT22;8461;52.356;10.704;2022-09-01T15:34:02;21.70;90.80
13742;DHT22;8461;52.356;10.704;2022-09-01T15:36:29;21.70;90.80
13742;DHT22;8461;52.356;10.704;2022-09-01T15:38:56;21.60;90.80
13742;DHT22;8461;52.356;10.704;2022-09-01T15:41:27;21.60;91.00
13742;DHT22;8461;52.356;10.704;2022-09-01T15:43:54;21.60;91.00
13742;DHT22;8461;52.356;10.704;2022-09-01T15:46:20;21.50;91.00
13742;DHT22;8461;52.356;10.704;2022-09-01T15:48:46;21.40;91.20
13742;DHT22;8461;52.356;10.704;2022-09-01T15:53:46;21.30;91.90
13742;DHT22;8461;52.356;10.704;2022-09-01T15:56:12;21.30;91.90
13742;DHT22;8461;52.356;10.704;2022-09-01T15:58:38;21.30;92.00
13742;DHT22;8461;52.356;10.704;2022-09-01T16:01:03;21.20;91.90
13742;DHT22;8461;52.356;10.704;2022-09-01T16:03:29;21.20;92.10
13742;DHT22;8461;52.356;10.704;2022-09-01T16:05:59;21.20;92.00
13742;DHT22;8461;52.356;10.704;2022-09-01T16:08:24;21.30;91.90
13742;DHT22;8461;52.356;10.704;2022-09-01T16:10:50;21.30;92.10
13742;DHT22;8461;52.356;10.704;2022-09-01T16:13:16;21.30;92.10
13742;DHT22;8461;52.356;10.704;2022-09-01T16:16:31;21.30;92.10
13742;DHT22;8461;52.356;10.704;2022-09-01T16:18:56;21.30;92.40
13742;DHT22;8461;52.356;10.704;2022-09-01T16:23:54;21.20;92.60
13742;DHT22;8461;52.356;10.704;2022-09-01T16:26:21;21.20;92.80
13742;DHT22;8461;52.356;10.704;2022-09-01T16:28:50;21.20;92.80
13742;DHT22;8461;52.356;10.704;2022-09-01T16:31:21;21.20;92.90
13742;DHT22;8461;52.356;10.704;2022-09-01T16:33:54;21.10;92.60
13742;DHT22;8461;52.356;10.704;2022-09-01T16:36:39;21.10;92.80
13742;DHT22;8461;52.356;10.704;2022-09-01T16:39:27;21.10;92.30
13742;DHT22;8461;52.356;10.704;2022-09-01T16:44:56;21.00;92.20
13742;DHT22;8461;52.356;10.704;2022-09-01T16:47:35;21.00;92.20
13742;DHT22;8461;52.356;10.704;2022-09-01T16:52:57;20.90;92.60
13742;DHT22;8461;52.356;10.704;2022-09-01T16:58:18;20.80;92.60
13742;DHT22;8461;52.356;10.704;2022-09-01T17:03:33;20.80;93.10
13742;DHT22;8461;52.356;10.704;2022-09-01T17:06:18;20.70;93.30
13742;DHT22;8461;52.356;10.704;2022-09-01T17:08:53;20.60;93.30
13742;DHT22;8461;52.356;10.704;2022-09-01T17:11:31;20.60;93.40